sensor_id;sensor_type;location;lat;lon;timestamp;temperature;humidity
52575;DHT22;38468;48.114;-1.684;2024-01-30T00:00:32;13.20;79.60
52575;DHT22;38468;48.114;-1.684;2024-01-30T00:02:51;13.20;79.50
52575;DHT22;38468;48.114;-1.684;2024-01-30T00:04:52;13.20;79.40
52575;DHT22;38468;48.114;-1.684;2024-01-30T00:06:52;13.20;79.30
52575;DHT22;38468;48.114;-1.684;2024-01-30T00:08:53;13.30;79.50
52575;DHT22;38468;48.114;-1.684;2024-01-30T00:10:54;13.20;79.60
52575;DHT22;38468;48.114;-1.684;2024-01-30T00:12:54;13.20;79.60
52575;DHT22;38468;48.114;-1.684;2024-01-30T00:14:55;13.20;80.30
52575;DHT22;38468;48.114;-1.684;2024-01-30T00:16:56;13.20;80.20
52575;DHT22;38468;48.114;-1.684;2024-01-30T00:18:56;13.20;80.40
52575;DHT22;38468;48.114;-1.684;2024-01-30T00:20:57;13.20;80.20
52575;DHT22;38468;48.114;-1.684;2024-01-30T00:22:58;13.20;80.40
52575;DHT22;38468;48.114;-1.684;2024-01-30T00:24:58;13.20;80.30
52575;DHT22;38468;48.114;-1.684;2024-01-30T00:26:59;13.20;80.60
52575;DHT22;38468;48.114;-1.684;2024-01-30T00:28:59;13.20;80.50
52575;DHT22;38468;48.114;-1.684;2024-01-30T00:31:00;13.20;80.60
52575;DHT22;38468;48.114;-1.684;2024-01-30T00:33:01;13.10;81.00
52575;DHT22;38468;48.114;-1.684;2024-01-30T00:35:01;13.10;80.80
52575;DHT22;38468;48.114;-1.684;2024-01-30T00:37:02;13.20;80.50
52575;DHT22;38468;48.114;-1.684;2024-01-30T00:39:02;13.20;81.00
52575;DHT22;38468;48.114;-1.684;2024-01-30T00:41:08;13.20;80.90
52575;DHT22;38468;48.114;-1.684;2024-01-30T00:43:08;13.20;81.00
52575;DHT22;38468;48.114;-1.684;2024-01-30T00:45:14;13.20;81.00
52575;DHT22;38468;48.114;-1.684;2024-01-30T00:47:17;13.20;80.80
52575;DHT22;38468;48.114;-1.684;2024-01-30T00:49:17;13.20;80.80
52575;DHT22;38468;48.114;-1.684;2024-01-30T00:51:18;13.20;80.90
52575;DHT22;38468;48.114;-1.684;2024-01-30T00:53:19;13.10;81.00
52575;DHT22;38468;48.114;-1.684;2024-01-30T00:55:19;13.20;80.90
52575;DHT22;38468;48.114;-1.684;2024-01-30T00:57:20;13.10;81.00
52575;DHT22;38468;48.114;-1.684;2024-01-30T00:59:21;13.10;81.00
52575;DHT22;38468;48.114;-1.684;2024-01-30T01:04:18;13.10;80.80
52575;DHT22;38468;48.114;-1.684;2024-01-30T01:06:19;13.20;80.80
52575;DHT22;38468;48.114;-1.684;2024-01-30T01:08:20;13.20;80.70
52575;DHT22;38468;48.114;-1.684;2024-01-30T01:10:20;13.10;80.90
52575;DHT22;38468;48.114;-1.684;2024-01-30T01:12:21;13.00;81.40
52575;DHT22;38468;48.114;-1.684;2024-01-30T01:14:22;13.00;81.50
52575;DHT22;38468;48.114;-1.684;2024-01-30T01:16:41;13.00;81.60
52575;DHT22;38468;48.114;-1.684;2024-01-30T01:18:41;13.00;81.20
52575;DHT22;38468;48.114;-1.684;2024-01-30T01:20:42;13.00;81.20
52575;DHT22;38468;48.114;-1.684;2024-01-30T01:22:42;13.10;81.20
52575;DHT22;38468;48.114;-1.684;2024-01-30T01:24:43;13.00;81.40
52575;DHT22;38468;48.114;-1.684;2024-01-30T01:26:44;13.00;81.60
52575;DHT22;38468;48.114;-1.684;2024-01-30T01:28:45;13.10;81.40
52575;DHT22;38468;48.114;-1.684;2024-01-30T01:30:45;13.10;81.40
52575;DHT22;38468;48.114;-1.684;2024-01-30T01:32:47;13.00;81.50
52575;DHT22;38468;48.114;-1.684;2024-01-30T01:34:55;13.10;81.40
52575;DHT22;38468;48.114;-1.684;2024-01-30T01:36:55;13.10;81.50
52575;DHT22;38468;48.114;-1.684;2024-01-30T01:38:56;13.00;81.50
52575;DHT22;38468;48.114;-1.684;2024-01-30T01:40:56;13.10;81.50
52575;DHT22;38468;48.114;-1.684;2024-01-30T01:42:57;13.00;81.60
52575;DHT22;38468;48.114;-1.684;2024-01-30T01:44:58;13.10;81.50
52575;DHT22;38468;48.114;-1.684;2024-01-30T01:46:58;13.10;81.50
52575;DHT22;38468;48.114;-1.684;2024-01-30T01:49:00;13.10;81.50
52575;DHT22;38468;48.114;-1.684;2024-01-30T01:51:02;13.10;81.40
52575;DHT22;38468;48.114;-1.684;2024-01-30T01:53:03;13.10;81.40
52575;DHT22;38468;48.114;-1.684;2024-01-30T01:55:05;13.10;81.40
52575;DHT22;38468;48.114;-1.684;2024-01-30T01:57:06;13.10;81.60
52575;DHT22;38468;48.114;-1.684;2024-01-30T01:59:08;13.00;81.50
52575;DHT22;38468;48.114;-1.684;2024-01-30T02:01:08;13.10;81.40
52575;DHT22;38468;48.114;-1.684;2024-01-30T02:03:10;13.10;81.30
52575;DHT22;38468;48.114;-1.684;2024-01-30T02:05:12;13.20;81.30
52575;DHT22;38468;48.114;-1.684;2024-01-30T02:07:13;13.10;81.20
52575;DHT22;38468;48.114;-1.684;2024-01-30T02:09:14;13.20;81.10
52575;DHT22;38468;48.114;-1.684;2024-01-30T02:11:14;13.20;81.20
52575;DHT22;38468;48.114;-1.684;2024-01-30T02:13:17;13.20;81.20
52575;DHT22;38468;48.114;-1.684;2024-01-30T02:15:17;13.20;81.10
52575;DHT22;38468;48.114;-1.684;2024-01-30T02:17:18;13.10;81.00
52575;DHT22;38468;48.114;-1.684;2024-01-30T02:19:19;13.00;80.90
52575;DHT22;38468;48.114;-1.684;2024-01-30T02:21:20;13.00;80.80
52575;DHT22;38468;48.114;-1.684;2024-01-30T02:23:23;12.90;80.70
52575;DHT22;38468;48.114;-1.684;2024-01-30T02:25:35;12.90;80.80
52575;DHT22;38468;48.114;-1.684;2024-01-30T02:27:36;12.90;80.90
52575;DHT22;38468;48.114;-1.684;2024-01-30T02:29:37;12.80;80.80
52575;DHT22;38468;48.114;-1.684;2024-01-30T02:31:57;12.80;80.80
52575;DHT22;38468;48.114;-1.684;2024-01-30T02:33:58;12.80;80.80
52575;DHT22;38468;48.114;-1.684;2024-01-30T02:35:58;12.70;80.80
52575;DHT22;38468;48.114;-1.684;2024-01-30T02:37:59;12.80;80.80
52575;DHT22;38468;48.114;-1.684;2024-01-30T02:40:00;12.80;80.80
52575;DHT22;38468;48.114;-1.684;2024-01-30T02:42:00;12.80;80.90
52575;DHT22;38468;48.114;-1.684;2024-01-30T02:44:02;12.80;80.90
52575;DHT22;38468;48.114;-1.684;2024-01-30T02:46:02;12.80;80.90
52575;DHT22;38468;48.114;-1.684;2024-01-30T02:48:03;12.80;80.80
52575;DHT22;38468;48.114;-1.684;2024-01-30T02:50:04;12.80;80.80
52575;DHT22;38468;48.114;-1.684;2024-01-30T02:52:05;12.80;80.80
52575;DHT22;38468;48.114;-1.684;2024-01-30T02:54:06;12.80;80.80
52575;DHT22;38468;48.114;-1.684;2024-01-30T02:56:06;12.70;80.70
52575;DHT22;38468;48.114;-1.684;2024-01-30T02:58:10;12.70;80.80
52575;DHT22;38468;48.114;-1.684;2024-01-30T03:00:11;12.70;80.70
52575;DHT22;38468;48.114;-1.684;2024-01-30T03:02:17;12.80;80.80
52575;DHT22;38468;48.114;-1.684;2024-01-30T03:04:17;12.70;80.60
52575;DHT22;38468;48.114;-1.684;2024-01-30T03:06:18;12.60;80.00
52575;DHT22;38468;48.114;-1.684;2024-01-30T03:08:20;12.50;80.00
52575;DHT22;38468;48.114;-1.684;2024-01-30T03:10:21;12.50;80.00
52575;DHT22;38468;48.114;-1.684;2024-01-30T03:12:22;12.40;80.00
52575;DHT22;38468;48.114;-1.684;2024-01-30T03:14:23;12.40;80.10
52575;DHT22;38468;48.114;-1.684;2024-01-30T03:16:23;12.40;80.20
52575;DHT22;38468;48.114;-1.684;2024-01-30T03:18:24;12.40;80.30
52575;DHT22;38468;48.114;-1.684;2024-01-30T03:20:25;12.40;80.30
52575;DHT22;38468;48.114;-1.684;2024-01-30T03:22:25;12.40;80.30
52575;DHT22;38468;48.114;-1.684;2024-01-30T03:24:26;12.40;80.20
52575;DHT22;38468;48.114;-1.684;2024-01-30T03:26:26;12.40;80.10
52575;DHT22;38468;48.114;-1.684;2024-01-30T03:28:27;12.20;79.20
52575;DHT22;38468;48.114;-1.684;2024-01-30T03:30:28;12.20;79.40
52575;DHT22;38468;48.114;-1.684;2024-01-30T03:32:28;12.00;78.10
52575;DHT22;38468;48.114;-1.684;2024-01-30T03:34:29;12.00;78.80
52575;DHT22;38468;48.114;-1.684;2024-01-30T03:36:30;12.00;78.90
52575;DHT22;38468;48.114;-1.684;2024-01-30T03:38:34;12.00;79.10
52575;DHT22;38468;48.114;-1.684;2024-01-30T03:40:34;11.90;78.80
52575;DHT22;38468;48.114;-1.684;2024-01-30T03:42:37;12.00;78.80
52575;DHT22;38468;48.114;-1.684;2024-01-30T03:44:38;12.00;79.10
52575;DHT22;38468;48.114;-1.684;2024-01-30T03:46:38;12.00;79.30
52575;DHT22;38468;48.114;-1.684;2024-01-30T03:48:39;12.00;79.50
52575;DHT22;38468;48.114;-1.684;2024-01-30T03:50:40;12.10;79.50
52575;DHT22;38468;48.114;-1.684;2024-01-30T03:52:41;12.10;79.50
52575;DHT22;38468;48.114;-1.684;2024-01-30T03:54:41;12.10;79.60
52575;DHT22;38468;48.114;-1.684;2024-01-30T03:56:42;12.20;79.70
52575;DHT22;38468;48.114;-1.684;2024-01-30T03:58:42;12.20;79.70
52575;DHT22;38468;48.114;-1.684;2024-01-30T04:00:43;12.20;79.70
52575;DHT22;38468;48.114;-1.684;2024-01-30T04:02:45;12.20;79.70
52575;DHT22;38468;48.114;-1.684;2024-01-30T04:04:45;12.20;79.60
52575;DHT22;38468;48.114;-1.684;2024-01-30T04:06:46;12.20;79.60
52575;DHT22;38468;48.114;-1.684;2024-01-30T04:08:47;12.30;79.60
52575;DHT22;38468;48.114;-1.684;2024-01-30T04:10:48;12.30;79.60
52575;DHT22;38468;48.114;-1.684;2024-01-30T04:12:49;12.30;79.60
52575;DHT22;38468;48.114;-1.684;2024-01-30T04:14:50;12.30;79.60
52575;DHT22;38468;48.114;-1.684;2024-01-30T04:22:34;12.30;79.30
52575;DHT22;38468;48.114;-1.684;2024-01-30T04:24:35;12.30;79.30
52575;DHT22;38468;48.114;-1.684;2024-01-30T04:26:36;12.30;79.20
52575;DHT22;38468;48.114;-1.684;2024-01-30T04:28:37;12.30;79.30
52575;DHT22;38468;48.114;-1.684;2024-01-30T04:30:38;12.30;79.20
52575;DHT22;38468;48.114;-1.684;2024-01-30T04:32:39;12.30;79.10
52575;DHT22;38468;48.114;-1.684;2024-01-30T04:34:39;12.20;79.10
52575;DHT22;38468;48.114;-1.684;2024-01-30T04:36:44;12.30;79.10
52575;DHT22;38468;48.114;-1.684;2024-01-30T04:38:45;12.20;79.00
52575;DHT22;38468;48.114;-1.684;2024-01-30T04:40:47;12.20;78.90
52575;DHT22;38468;48.114;-1.684;2024-01-30T04:42:47;12.20;79.00
52575;DHT22;38468;48.114;-1.684;2024-01-30T04:44:48;12.20;79.00
52575;DHT22;38468;48.114;-1.684;2024-01-30T04:46:49;12.20;78.90
52575;DHT22;38468;48.114;-1.684;2024-01-30T04:48:50;12.20;78.80
52575;DHT22;38468;48.114;-1.684;2024-01-30T04:50:59;12.20;78.80
52575;DHT22;38468;48.114;-1.684;2024-01-30T04:53:03;12.20;78.60
52575;DHT22;38468;48.114;-1.684;2024-01-30T04:55:04;12.10;78.50
52575;DHT22;38468;48.114;-1.684;2024-01-30T04:57:05;12.10;78.50
52575;DHT22;38468;48.114;-1.684;2024-01-30T04:59:11;12.10;78.50
52575;DHT22;38468;48.114;-1.684;2024-01-30T05:01:15;12.10;78.50
52575;DHT22;38468;48.114;-1.684;2024-01-30T05:03:16;12.00;78.30
52575;DHT22;38468;48.114;-1.684;2024-01-30T05:05:16;12.00;78.20
52575;DHT22;38468;48.114;-1.684;2024-01-30T05:07:17;12.00;78.20
52575;DHT22;38468;48.114;-1.684;2024-01-30T05:09:18;11.90;77.90
52575;DHT22;38468;48.114;-1.684;2024-01-30T05:11:19;11.90;78.00
52575;DHT22;38468;48.114;-1.684;2024-01-30T05:13:20;11.90;77.90
52575;DHT22;38468;48.114;-1.684;2024-01-30T05:15:20;11.90;78.00
52575;DHT22;38468;48.114;-1.684;2024-01-30T05:17:21;11.90;78.00
52575;DHT22;38468;48.114;-1.684;2024-01-30T05:19:22;11.90;77.90
52575;DHT22;38468;48.114;-1.684;2024-01-30T05:21:23;11.80;77.70
52575;DHT22;38468;48.114;-1.684;2024-01-30T05:23:24;11.80;77.70
52575;DHT22;38468;48.114;-1.684;2024-01-30T05:25:24;11.70;77.70
52575;DHT22;38468;48.114;-1.684;2024-01-30T05:27:25;11.70;77.80
52575;DHT22;38468;48.114;-1.684;2024-01-30T05:29:27;11.70;77.80
52575;DHT22;38468;48.114;-1.684;2024-01-30T05:31:27;11.70;77.80
52575;DHT22;38468;48.114;-1.684;2024-01-30T05:33:28;11.70;77.70
52575;DHT22;38468;48.114;-1.684;2024-01-30T05:35:29;11.70;77.70
52575;DHT22;38468;48.114;-1.684;2024-01-30T05:37:29;11.70;77.70
52575;DHT22;38468;48.114;-1.684;2024-01-30T05:39:30;11.70;77.80
52575;DHT22;38468;48.114;-1.684;2024-01-30T05:41:33;11.70;77.70
52575;DHT22;38468;48.114;-1.684;2024-01-30T05:43:33;11.70;77.60
52575;DHT22;38468;48.114;-1.684;2024-01-30T05:45:34;11.80;77.60
52575;DHT22;38468;48.114;-1.684;2024-01-30T05:47:39;11.70;77.60
52575;DHT22;38468;48.114;-1.684;2024-01-30T05:49:40;11.70;77.50
52575;DHT22;38468;48.114;-1.684;2024-01-30T05:51:41;11.70;77.50
52575;DHT22;38468;48.114;-1.684;2024-01-30T05:53:41;11.70;77.50
52575;DHT22;38468;48.114;-1.684;2024-01-30T05:55:42;11.70;77.50
52575;DHT22;38468;48.114;-1.684;2024-01-30T05:57:42;11.70;77.40
52575;DHT22;38468;48.114;-1.684;2024-01-30T05:59:44;11.70;77.40
52575;DHT22;38468;48.114;-1.684;2024-01-30T06:01:46;11.70;77.40
52575;DHT22;38468;48.114;-1.684;2024-01-30T06:03:48;11.70;77.40
52575;DHT22;38468;48.114;-1.684;2024-01-30T06:05:49;11.70;77.30
52575;DHT22;38468;48.114;-1.684;2024-01-30T06:07:50;11.60;77.20
52575;DHT22;38468;48.114;-1.684;2024-01-30T06:09:51;11.60;77.10
52575;DHT22;38468;48.114;-1.684;2024-01-30T06:11:51;11.50;76.90
52575;DHT22;38468;48.114;-1.684;2024-01-30T06:13:52;11.50;76.60
52575;DHT22;38468;48.114;-1.684;2024-01-30T06:15:53;11.50;76.60
52575;DHT22;38468;48.114;-1.684;2024-01-30T06:17:53;11.40;76.60
52575;DHT22;38468;48.114;-1.684;2024-01-30T06:19:54;11.40;76.70
52575;DHT22;38468;48.114;-1.684;2024-01-30T06:21:54;11.30;76.70
52575;DHT22;38468;48.114;-1.684;2024-01-30T06:23:55;11.30;76.70
52575;DHT22;38468;48.114;-1.684;2024-01-30T06:25:56;11.30;76.70
52575;DHT22;38468;48.114;-1.684;2024-01-30T06:27:56;11.30;76.70
52575;DHT22;38468;48.114;-1.684;2024-01-30T06:29:57;11.30;76.70
52575;DHT22;38468;48.114;-1.684;2024-01-30T06:31:58;11.20;76.70
52575;DHT22;38468;48.114;-1.684;2024-01-30T06:34:00;11.20;76.70
52575;DHT22;38468;48.114;-1.684;2024-01-30T06:36:00;11.20;76.50
52575;DHT22;38468;48.114;-1.684;2024-01-30T06:38:01;11.10;76.50
52575;DHT22;38468;48.114;-1.684;2024-01-30T06:40:01;11.10;76.50
52575;DHT22;38468;48.114;-1.684;2024-01-30T06:42:02;11.10;76.40
52575;DHT22;38468;48.114;-1.684;2024-01-30T06:44:03;11.10;76.50
52575;DHT22;38468;48.114;-1.684;2024-01-30T06:46:08;11.10;76.50
52575;DHT22;38468;48.114;-1.684;2024-01-30T06:48:09;11.00;76.50
52575;DHT22;38468;48.114;-1.684;2024-01-30T06:50:09;11.00;76.50
52575;DHT22;38468;48.114;-1.684;2024-01-30T06:52:10;11.00;76.40
52575;DHT22;38468;48.114;-1.684;2024-01-30T06:54:11;11.00;76.30
52575;DHT22;38468;48.114;-1.684;2024-01-30T06:56:12;11.00;76.30
52575;DHT22;38468;48.114;-1.684;2024-01-30T06:58:12;10.90;76.20
52575;DHT22;38468;48.114;-1.684;2024-01-30T07:00:15;10.90;76.10
52575;DHT22;38468;48.114;-1.684;2024-01-30T07:02:21;10.90;76.10
52575;DHT22;38468;48.114;-1.684;2024-01-30T07:04:23;10.90;76.10
52575;DHT22;38468;48.114;-1.684;2024-01-30T07:06:24;10.80;76.10
52575;DHT22;38468;48.114;-1.684;2024-01-30T07:08:25;10.80;76.20
52575;DHT22;38468;48.114;-1.684;2024-01-30T07:10:25;10.80;76.20
52575;DHT22;38468;48.114;-1.684;2024-01-30T07:12:26;10.90;76.20
52575;DHT22;38468;48.114;-1.684;2024-01-30T07:14:27;10.80;76.20
52575;DHT22;38468;48.114;-1.684;2024-01-30T07:16:27;10.80;76.20
52575;DHT22;38468;48.114;-1.684;2024-01-30T07:18:28;10.80;76.10
52575;DHT22;38468;48.114;-1.684;2024-01-30T07:20:28;10.80;76.00
52575;DHT22;38468;48.114;-1.684;2024-01-30T07:22:30;10.80;75.90
52575;DHT22;38468;48.114;-1.684;2024-01-30T07:24:31;10.70;75.90
52575;DHT22;38468;48.114;-1.684;2024-01-30T07:26:32;10.70;75.90
52575;DHT22;38468;48.114;-1.684;2024-01-30T07:28:33;10.70;75.80
52575;DHT22;38468;48.114;-1.684;2024-01-30T07:30:33;10.60;75.80
52575;DHT22;38468;48.114;-1.684;2024-01-30T07:32:39;10.60;75.70
52575;DHT22;38468;48.114;-1.684;2024-01-30T07:34:41;10.50;75.70
52575;DHT22;38468;48.114;-1.684;2024-01-30T07:36:41;10.50;75.60
52575;DHT22;38468;48.114;-1.684;2024-01-30T07:38:42;10.50;75.60
52575;DHT22;38468;48.114;-1.684;2024-01-30T07:40:43;10.50;75.70
52575;DHT22;38468;48.114;-1.684;2024-01-30T07:42:43;10.40;75.70
52575;DHT22;38468;48.114;-1.684;2024-01-30T07:44:50;10.40;75.70
52575;DHT22;38468;48.114;-1.684;2024-01-30T07:46:51;10.40;75.70
52575;DHT22;38468;48.114;-1.684;2024-01-30T07:48:52;10.40;75.80
52575;DHT22;38468;48.114;-1.684;2024-01-30T07:50:53;10.40;75.80
52575;DHT22;38468;48.114;-1.684;2024-01-30T07:52:56;10.40;75.80
52575;DHT22;38468;48.114;-1.684;2024-01-30T07:55:50;10.40;75.80
52575;DHT22;38468;48.114;-1.684;2024-01-30T07:57:52;10.40;75.80
52575;DHT22;38468;48.114;-1.684;2024-01-30T07:59:53;10.40;75.80
52575;DHT22;38468;48.114;-1.684;2024-01-30T08:01:54;10.40;75.80
52575;DHT22;38468;48.114;-1.684;2024-01-30T08:04:00;10.40;75.90
52575;DHT22;38468;48.114;-1.684;2024-01-30T08:06:00;10.40;75.90
52575;DHT22;38468;48.114;-1.684;2024-01-30T08:08:01;10.50;75.80
52575;DHT22;38468;48.114;-1.684;2024-01-30T08:10:02;10.50;75.90
52575;DHT22;38468;48.114;-1.684;2024-01-30T08:12:02;10.50;75.90
52575;DHT22;38468;48.114;-1.684;2024-01-30T08:14:03;10.50;75.90
52575;DHT22;38468;48.114;-1.684;2024-01-30T08:16:04;10.50;75.90
52575;DHT22;38468;48.114;-1.684;2024-01-30T08:18:07;10.50;75.80
52575;DHT22;38468;48.114;-1.684;2024-01-30T08:20:09;10.50;75.80
52575;DHT22;38468;48.114;-1.684;2024-01-30T08:22:12;10.50;75.70
52575;DHT22;38468;48.114;-1.684;2024-01-30T08:24:13;10.50;75.80
52575;DHT22;38468;48.114;-1.684;2024-01-30T08:26:14;10.50;75.80
52575;DHT22;38468;48.114;-1.684;2024-01-30T08:28:14;10.50;75.70
52575;DHT22;38468;48.114;-1.684;2024-01-30T08:30:15;10.60;75.70
52575;DHT22;38468;48.114;-1.684;2024-01-30T08:32:19;10.50;75.70
52575;DHT22;38468;48.114;-1.684;2024-01-30T08:34:19;10.50;75.70
52575;DHT22;38468;48.114;-1.684;2024-01-30T08:36:20;10.50;75.60
52575;DHT22;38468;48.114;-1.684;2024-01-30T08:38:21;10.50;75.60
52575;DHT22;38468;48.114;-1.684;2024-01-30T08:40:22;10.50;75.50
52575;DHT22;38468;48.114;-1.684;2024-01-30T08:42:25;10.50;75.60
52575;DHT22;38468;48.114;-1.684;2024-01-30T08:44:26;10.50;75.70
52575;DHT22;38468;48.114;-1.684;2024-01-30T08:46:27;10.50;75.70
52575;DHT22;38468;48.114;-1.684;2024-01-30T08:48:33;10.60;75.80
52575;DHT22;38468;48.114;-1.684;2024-01-30T08:50:34;10.70;76.30
52575;DHT22;38468;48.114;-1.684;2024-01-30T08:52:36;11.00;77.10
52575;DHT22;38468;48.114;-1.684;2024-01-30T08:54:37;11.30;77.60
52575;DHT22;38468;48.114;-1.684;2024-01-30T08:56:37;11.70;77.80
52575;DHT22;38468;48.114;-1.684;2024-01-30T08:58:38;12.00;77.70
52575;DHT22;38468;48.114;-1.684;2024-01-30T09:00:38;12.30;77.90
52575;DHT22;38468;48.114;-1.684;2024-01-30T09:02:39;12.60;77.80
52575;DHT22;38468;48.114;-1.684;2024-01-30T09:04:42;12.90;77.70
52575;DHT22;38468;48.114;-1.684;2024-01-30T09:06:43;13.20;77.60
52575;DHT22;38468;48.114;-1.684;2024-01-30T09:08:43;13.50;77.40
52575;DHT22;38468;48.114;-1.684;2024-01-30T09:10:44;13.80;76.90
52575;DHT22;38468;48.114;-1.684;2024-01-30T09:12:45;14.00;76.40
52575;DHT22;38468;48.114;-1.684;2024-01-30T09:14:45;14.10;76.40
52575;DHT22;38468;48.114;-1.684;2024-01-30T09:16:46;14.30;76.40
52575;DHT22;38468;48.114;-1.684;2024-01-30T09:18:48;14.50;75.80
52575;DHT22;38468;48.114;-1.684;2024-01-30T09:20:49;14.80;75.70
52575;DHT22;38468;48.114;-1.684;2024-01-30T09:22:50;14.90;75.40
52575;DHT22;38468;48.114;-1.684;2024-01-30T09:24:51;15.10;75.00
52575;DHT22;38468;48.114;-1.684;2024-01-30T09:26:51;15.30;75.10
52575;DHT22;38468;48.114;-1.684;2024-01-30T09:28:52;15.50;74.70
52575;DHT22;38468;48.114;-1.684;2024-01-30T09:30:53;15.70;73.90
52575;DHT22;38468;48.114;-1.684;2024-01-30T09:32:53;15.90;73.00
52575;DHT22;38468;48.114;-1.684;2024-01-30T09:34:54;16.00;72.90
52575;DHT22;38468;48.114;-1.684;2024-01-30T09:36:54;16.10;72.20
52575;DHT22;38468;48.114;-1.684;2024-01-30T09:38:55;16.40;71.90
52575;DHT22;38468;48.114;-1.684;2024-01-30T09:40:56;16.60;72.10
52575;DHT22;38468;48.114;-1.684;2024-01-30T09:42:59;17.00;72.40
52575;DHT22;38468;48.114;-1.684;2024-01-30T09:45:01;17.20;72.00
52575;DHT22;38468;48.114;-1.684;2024-01-30T09:47:04;17.50;71.10
52575;DHT22;38468;48.114;-1.684;2024-01-30T09:49:06;17.50;69.50
52575;DHT22;38468;48.114;-1.684;2024-01-30T09:51:09;17.60;70.10
52575;DHT22;38468;48.114;-1.684;2024-01-30T09:53:11;17.80;70.10
52575;DHT22;38468;48.114;-1.684;2024-01-30T09:55:13;17.90;69.80
52575;DHT22;38468;48.114;-1.684;2024-01-30T09:57:15;18.00;69.20
52575;DHT22;38468;48.114;-1.684;2024-01-30T09:59:15;18.00;66.50
52575;DHT22;38468;48.114;-1.684;2024-01-30T10:01:17;18.00;65.90
52575;DHT22;38468;48.114;-1.684;2024-01-30T10:03:19;17.80;63.30
52575;DHT22;38468;48.114;-1.684;2024-01-30T10:05:21;17.80;64.50
52575;DHT22;38468;48.114;-1.684;2024-01-30T10:07:26;17.80;65.10
52575;DHT22;38468;48.114;-1.684;2024-01-30T10:09:27;17.80;63.50
52575;DHT22;38468;48.114;-1.684;2024-01-30T10:11:28;17.90;64.90
52575;DHT22;38468;48.114;-1.684;2024-01-30T10:13:29;18.10;66.00
52575;DHT22;38468;48.114;-1.684;2024-01-30T10:15:29;18.30;64.70
52575;DHT22;38468;48.114;-1.684;2024-01-30T10:17:30;18.40;63.90
52575;DHT22;38468;48.114;-1.684;2024-01-30T10:19:31;18.40;64.00
52575;DHT22;38468;48.114;-1.684;2024-01-30T10:21:32;18.50;64.60
52575;DHT22;38468;48.114;-1.684;2024-01-30T10:23:32;18.80;64.90
52575;DHT22;38468;48.114;-1.684;2024-01-30T10:25:34;19.00;62.60
52575;DHT22;38468;48.114;-1.684;2024-01-30T10:27:34;19.00;63.40
52575;DHT22;38468;48.114;-1.684;2024-01-30T10:29:37;19.20;63.50
52575;DHT22;38468;48.114;-1.684;2024-01-30T10:31:37;19.40;62.80
52575;DHT22;38468;48.114;-1.684;2024-01-30T10:33:38;19.50;64.30
52575;DHT22;38468;48.114;-1.684;2024-01-30T10:35:39;19.80;63.90
52575;DHT22;38468;48.114;-1.684;2024-01-30T10:37:41;20.00;63.50
52575;DHT22;38468;48.114;-1.684;2024-01-30T10:39:44;20.10;61.20
52575;DHT22;38468;48.114;-1.684;2024-01-30T10:41:47;20.10;61.90
52575;DHT22;38468;48.114;-1.684;2024-01-30T10:43:58;20.20;61.90
52575;DHT22;38468;48.114;-1.684;2024-01-30T10:46:10;20.30;61.60
52575;DHT22;38468;48.114;-1.684;2024-01-30T10:48:12;20.50;61.50
52575;DHT22;38468;48.114;-1.684;2024-01-30T10:50:13;20.50;60.90
52575;DHT22;38468;48.114;-1.684;2024-01-30T10:52:14;20.60;61.70
52575;DHT22;38468;48.114;-1.684;2024-01-30T10:54:17;20.90;61.60
52575;DHT22;38468;48.114;-1.684;2024-01-30T10:56:22;21.00;60.50
52575;DHT22;38468;48.114;-1.684;2024-01-30T10:58:23;21.00;58.60
52575;DHT22;38468;48.114;-1.684;2024-01-30T11:00:24;20.80;58.30
52575;DHT22;38468;48.114;-1.684;2024-01-30T11:02:26;20.70;59.10
52575;DHT22;38468;48.114;-1.684;2024-01-30T11:04:38;20.50;57.10
52575;DHT22;38468;48.114;-1.684;2024-01-30T11:06:42;20.30;56.90
52575;DHT22;38468;48.114;-1.684;2024-01-30T11:08:43;20.00;56.70
52575;DHT22;38468;48.114;-1.684;2024-01-30T11:10:47;19.90;57.30
52575;DHT22;38468;48.114;-1.684;2024-01-30T11:12:47;19.70;57.20
52575;DHT22;38468;48.114;-1.684;2024-01-30T11:15:02;19.50;57.70
52575;DHT22;38468;48.114;-1.684;2024-01-30T11:17:04;19.40;57.30
52575;DHT22;38468;48.114;-1.684;2024-01-30T11:19:10;19.30;58.10
52575;DHT22;38468;48.114;-1.684;2024-01-30T11:21:13;19.00;56.00
52575;DHT22;38468;48.114;-1.684;2024-01-30T11:23:14;18.70;55.80
52575;DHT22;38468;48.114;-1.684;2024-01-30T11:25:16;18.40;55.00
52575;DHT22;38468;48.114;-1.684;2024-01-30T11:27:17;18.00;54.90
52575;DHT22;38468;48.114;-1.684;2024-01-30T11:29:18;17.80;55.50
52575;DHT22;38468;48.114;-1.684;2024-01-30T11:31:19;17.70;55.90
52575;DHT22;38468;48.114;-1.684;2024-01-30T11:33:31;17.80;57.10
52575;DHT22;38468;48.114;-1.684;2024-01-30T11:35:41;17.90;56.00
52575;DHT22;38468;48.114;-1.684;2024-01-30T11:37:43;17.90;56.30
52575;DHT22;38468;48.114;-1.684;2024-01-30T11:39:46;17.90;56.30
52575;DHT22;38468;48.114;-1.684;2024-01-30T11:41:50;17.90;56.40
52575;DHT22;38468;48.114;-1.684;2024-01-30T11:43:54;17.80;55.00
52575;DHT22;38468;48.114;-1.684;2024-01-30T11:45:55;17.50;54.80
52575;DHT22;38468;48.114;-1.684;2024-01-30T11:47:56;17.30;54.80
52575;DHT22;38468;48.114;-1.684;2024-01-30T11:49:57;17.10;54.60
52575;DHT22;38468;48.114;-1.684;2024-01-30T11:51:58;17.00;54.60
52575;DHT22;38468;48.114;-1.684;2024-01-30T11:53:59;16.70;54.10
52575;DHT22;38468;48.114;-1.684;2024-01-30T11:55:59;16.50;54.60
52575;DHT22;38468;48.114;-1.684;2024-01-30T11:58:00;16.70;56.10
52575;DHT22;38468;48.114;-1.684;2024-01-30T12:00:01;17.20;57.00
52575;DHT22;38468;48.114;-1.684;2024-01-30T12:02:04;17.80;56.50
52575;DHT22;38468;48.114;-1.684;2024-01-30T12:04:05;18.30;55.50
52575;DHT22;38468;48.114;-1.684;2024-01-30T12:06:09;18.70;54.10
52575;DHT22;38468;48.114;-1.684;2024-01-30T12:08:15;19.20;56.00
52575;DHT22;38468;48.114;-1.684;2024-01-30T12:10:17;19.80;56.60
52575;DHT22;38468;48.114;-1.684;2024-01-30T12:12:18;20.00;54.70
52575;DHT22;38468;48.114;-1.684;2024-01-30T12:14:19;20.00;52.90
52575;DHT22;38468;48.114;-1.684;2024-01-30T12:16:20;19.50;51.80
52575;DHT22;38468;48.114;-1.684;2024-01-30T12:18:21;19.50;53.20
52575;DHT22;38468;48.114;-1.684;2024-01-30T12:20:22;19.80;54.30
52575;DHT22;38468;48.114;-1.684;2024-01-30T12:22:23;20.40;56.00
52575;DHT22;38468;48.114;-1.684;2024-01-30T12:24:25;21.10;55.70
52575;DHT22;38468;48.114;-1.684;2024-01-30T12:26:26;21.20;52.70
52575;DHT22;38468;48.114;-1.684;2024-01-30T12:28:26;21.00;51.30
52575;DHT22;38468;48.114;-1.684;2024-01-30T12:30:27;20.40;50.40
52575;DHT22;38468;48.114;-1.684;2024-01-30T12:32:28;19.80;50.50
52575;DHT22;38468;48.114;-1.684;2024-01-30T12:34:29;19.50;50.60
52575;DHT22;38468;48.114;-1.684;2024-01-30T12:36:30;19.00;50.50
52575;DHT22;38468;48.114;-1.684;2024-01-30T12:38:33;18.60;50.10
52575;DHT22;38468;48.114;-1.684;2024-01-30T12:40:34;18.30;50.60
52575;DHT22;38468;48.114;-1.684;2024-01-30T12:42:34;18.00;50.50
52575;DHT22;38468;48.114;-1.684;2024-01-30T12:44:35;17.90;51.00